Time;durP1;ratioP1;P1;durP2;ratioP2;P2;SDS_P1;SDS_P2;PMS_P1;PMS_P2;Temp;Humidity;BMP_temperature;BMP_pressure;BME280_temperature;BME280_humidity;BME280_pressure;Samples;Min_cycle;Max_cycle;Signal;HPM_P1;HPM_P2
2023/03/06 00:02:25;;;;;;;3.60;0.80;;;;;;;;;;4923131;29;20183;-66
2023/03/06 00:04:52;;;;;;;1.73;0.60;;;;;;;;;;4922622;29;20158;-66
2023/03/06 00:07:18;;;;;;;5.97;1.33;;;;;;;;;;4906404;29;20063;-66
2023/03/06 00:09:44;;;;;;;4.60;1.27;;;;;;;;;;4922115;29;20401;-67
2023/03/06 00:12:10;;;;;;;3.63;0.82;;;;;;;;;;4926576;29;20055;-67
2023/03/06 00:14:36;;;;;;;7.80;1.48;;;;;;;;;;4922545;29;20408;-66
2023/03/06 00:17:03;;;;;;;9.73;2.22;;;;;;;;;;4927618;29;20047;-67
2023/03/06 00:19:29;;;;;;;6.43;1.00;;;;;;;;;;4928043;29;21312;-66
2023/03/06 00:21:55;;;;;;;4.10;1.00;;;;;;;;;;4906606;29;20074;-66
2023/03/06 00:24:21;;;;;;;4.03;1.10;;;;;;;;;;4922243;29;20190;-66
2023/03/06 00:26:47;;;;;;;5.18;1.10;;;;;;;;;;4904580;29;20048;-67
2023/03/06 00:29:14;;;;;;;6.65;1.20;;;;;;;;;;4922297;29;20043;-67
2023/03/06 00:31:43;;;;;;;3.83;1.38;;;;;;;;;;4921884;29;21541;-67
2023/03/06 00:34:09;;;;;;;5.72;1.63;;;;;;;;;;4920180;29;20134;-67
2023/03/06 00:36:35;;;;;;;3.50;1.50;;;;;;;;;;4919883;29;20050;-67
2023/03/06 00:39:01;;;;;;;6.03;1.60;;;;;;;;;;4901754;29;21140;-67
2023/03/06 00:41:28;;;;;;;6.00;1.58;;;;;;;;;;4905035;29;20530;-67
2023/03/06 00:43:54;;;;;;;5.25;1.35;;;;;;;;;;4922235;29;20056;-67
2023/03/06 00:46:20;;;;;;;5.80;1.75;;;;;;;;;;4902900;29;20043;-67
2023/03/06 00:48:46;;;;;;;7.68;1.80;;;;;;;;;;4924855;29;20058;-67
2023/03/06 00:51:12;;;;;;;7.13;1.92;;;;;;;;;;4906810;29;20052;-67
2023/03/06 00:53:38;;;;;;;9.40;1.58;;;;;;;;;;4921849;29;20554;-67
2023/03/06 00:56:05;;;;;;;6.22;1.75;;;;;;;;;;4922040;29;20099;-66
2023/03/06 00:58:31;;;;;;;9.40;1.80;;;;;;;;;;4902940;29;20055;-66
2023/03/06 01:00:57;;;;;;;8.65;1.70;;;;;;;;;;4908924;29;20055;-66
2023/03/06 01:03:23;;;;;;;6.63;1.75;;;;;;;;;;4906118;29;20104;-66
2023/03/06 01:05:49;;;;;;;4.75;1.73;;;;;;;;;;4926134;29;20051;-66
2023/03/06 01:08:16;;;;;;;6.30;2.10;;;;;;;;;;4919756;29;20040;-66
2023/03/06 01:10:42;;;;;;;10.55;1.92;;;;;;;;;;4920696;29;20622;-66
2023/03/06 01:13:08;;;;;;;5.25;1.50;;;;;;;;;;4921611;29;20823;-66
2023/03/06 01:15:34;;;;;;;6.38;1.70;;;;;;;;;;4920818;29;20043;-66
2023/03/06 01:18:00;;;;;;;6.18;2.17;;;;;;;;;;4911205;29;20142;-67
2023/03/06 01:20:27;;;;;;;9.60;1.67;;;;;;;;;;4906108;29;20131;-67
2023/03/06 01:22:55;;;;;;;4.15;1.77;;;;;;;;;;4907274;29;20059;-66
2023/03/06 01:25:22;;;;;;;7.15;1.77;;;;;;;;;;4920248;29;20056;-67
2023/03/06 01:27:48;;;;;;;8.98;1.80;;;;;;;;;;4920552;29;20150;-67
2023/03/06 01:30:14;;;;;;;5.57;1.55;;;;;;;;;;4902052;29;20054;-66
2023/03/06 01:32:40;;;;;;;8.90;1.40;;;;;;;;;;4904052;29;20365;-67
2023/03/06 01:35:07;;;;;;;10.60;1.85;;;;;;;;;;4919660;29;20040;-66
2023/03/06 01:37:34;;;;;;;4.32;1.70;;;;;;;;;;4922339;29;20512;-66
2023/03/06 01:40:01;;;;;;;8.35;1.77;;;;;;;;;;4906311;29;20071;-67
2023/03/06 01:42:27;;;;;;;11.43;1.48;;;;;;;;;;4921427;29;20507;-66
2023/03/06 01:44:58;;;;;;;3.28;1.10;;;;;;;;;;4921262;29;20063;-66
2023/03/06 01:47:24;;;;;;;5.47;1.20;;;;;;;;;;4917422;29;20061;-66
2023/03/06 01:49:50;;;;;;;2.80;0.90;;;;;;;;;;4904750;29;20449;-66
2023/03/06 01:52:18;;;;;;;4.95;0.80;;;;;;;;;;4910337;29;20047;-67
2023/03/06 01:54:46;;;;;;;1.58;0.60;;;;;;;;;;4891170;29;20095;-67
2023/03/06 01:57:14;;;;;;;1.45;0.68;;;;;;;;;;4920817;29;20048;-65
2023/03/06 01:59:41;;;;;;;5.32;0.60;;;;;;;;;;4920165;29;20142;-65
2023/03/06 02:02:09;;;;;;;3.17;0.70;;;;;;;;;;4923441;29;20067;-66
2023/03/06 02:04:36;;;;;;;2.75;0.70;;;;;;;;;;4926826;29;20102;-66
2023/03/06 02:07:04;;;;;;;2.15;0.40;;;;;;;;;;4922412;29;20043;-66
2023/03/06 02:09:31;;;;;;;1.52;0.40;;;;;;;;;;4920407;29;20040;-66
2023/03/06 02:11:58;;;;;;;0.93;0.28;;;;;;;;;;4917575;29;20051;-66
2023/03/06 02:14:24;;;;;;;2.50;0.30;;;;;;;;;;4921598;29;20039;-66
2023/03/06 02:16:50;;;;;;;3.25;0.38;;;;;;;;;;4917483;29;20170;-66
2023/03/06 02:19:27;;;;;;;0.50;0.20;;;;;;;;;;4918380;29;20369;-66
2023/03/06 02:21:54;;;;;;;2.90;0.28;;;;;;;;;;4919766;29;20059;-67
2023/03/06 02:24:26;;;;;;;2.00;0.82;;;;;;;;;;4902024;29;20071;-66
2023/03/06 02:26:53;;;;;;;0.60;0.38;;;;;;;;;;4911820;29;20202;-66
2023/03/06 02:29:24;;;;;;;0.47;0.30;;;;;;;;;;4903605;28;20082;-66
2023/03/06 02:31:50;;;;;;;0.40;0.30;;;;;;;;;;4902601;29;20055;-66
2023/03/06 02:34:16;;;;;;;0.68;0.40;;;;;;;;;;4915093;29;20386;-66
2023/03/06 02:36:46;;;;;;;1.45;0.40;;;;;;;;;;4919426;29;20948;-66
2023/03/06 02:39:13;;;;;;;0.80;0.40;;;;;;;;;;4920155;29;20138;-66
2023/03/06 02:41:39;;;;;;;1.15;0.60;;;;;;;;;;4920675;29;20447;-66
2023/03/06 02:44:05;;;;;;;1.55;0.70;;;;;;;;;;4920797;29;20036;-66
2023/03/06 02:46:31;;;;;;;1.75;0.50;;;;;;;;;;4920842;29;20470;-66
2023/03/06 02:48:58;;;;;;;1.25;0.50;;;;;;;;;;4922767;29;20039;-66
2023/03/06 02:51:24;;;;;;;1.60;0.60;;;;;;;;;;4916307;29;20086;-66
2023/03/06 02:53:50;;;;;;;1.73;0.60;;;;;;;;;;4922106;29;20098;-66
2023/03/06 02:56:18;;;;;;;1.95;0.80;;;;;;;;;;4922639;29;20035;-67
2023/03/06 02:58:44;;;;;;;1.67;0.88;;;;;;;;;;4921290;29;20047;-67
2023/03/06 03:01:10;;;;;;;2.55;1.08;;;;;;;;;;4920423;29;20676;-67
2023/03/06 03:03:36;;;;;;;1.40;0.65;;;;;;;;;;4905137;29;20091;-67
2023/03/06 03:06:04;;;;;;;2.47;0.95;;;;;;;;;;4920818;29;20044;-67
2023/03/06 03:08:31;;;;;;;2.08;0.95;;;;;;;;;;4901208;29;20115;-67
2023/03/06 03:10:57;;;;;;;2.13;1.02;;;;;;;;;;4919365;29;20072;-67
2023/03/06 03:13:23;;;;;;;2.50;0.80;;;;;;;;;;4922259;29;20095;-67
2023/03/06 03:15:58;;;;;;;2.90;0.80;;;;;;;;;;4917317;29;20052;-67
2023/03/06 03:18:24;;;;;;;2.72;0.98;;;;;;;;;;4919463;29;20035;-67
2023/03/06 03:20:50;;;;;;;2.55;0.90;;;;;;;;;;4921953;29;20055;-67
2023/03/06 03:23:16;;;;;;;1.98;1.00;;;;;;;;;;4919635;29;21025;-67
2023/03/06 03:25:42;;;;;;;2.10;0.90;;;;;;;;;;4919314;29;20488;-67
2023/03/06 03:28:08;;;;;;;1.92;0.77;;;;;;;;;;4920884;29;20415;-67
2023/03/06 03:30:35;;;;;;;2.38;1.15;;;;;;;;;;4919699;29;20129;-67
2023/03/06 03:33:01;;;;;;;5.55;1.08;;;;;;;;;;4901552;29;20490;-67
2023/03/06 03:35:27;;;;;;;2.05;0.95;;;;;;;;;;4891430;29;20099;-67
2023/03/06 03:37:54;;;;;;;3.83;1.63;;;;;;;;;;4924137;29;20047;-67
2023/03/06 03:40:20;;;;;;;2.42;1.00;;;;;;;;;;4921895;29;20044;-67
2023/03/06 03:42:46;;;;;;;2.08;0.95;;;;;;;;;;4923393;29;20035;-67
2023/03/06 03:45:12;;;;;;;1.88;0.90;;;;;;;;;;4926039;29;20044;-67
2023/03/06 03:47:39;;;;;;;2.20;1.08;;;;;;;;;;4903761;29;20429;-67
2023/03/06 03:50:06;;;;;;;3.25;1.08;;;;;;;;;;4905715;29;20047;-67
2023/03/06 03:52:32;;;;;;;2.72;1.40;;;;;;;;;;4917131;29;20060;-67
2023/03/06 03:54:58;;;;;;;3.75;1.30;;;;;;;;;;4919346;29;20039;-67
2023/03/06 03:57:24;;;;;;;3.58;1.40;;;;;;;;;;4924364;29;20044;-67
2023/03/06 03:59:50;;;;;;;4.40;1.30;;;;;;;;;;4924740;29;20428;-67
2023/03/06 04:02:17;;;;;;;4.55;1.33;;;;;;;;;;4923901;29;20441;-67
2023/03/06 04:04:43;;;;;;;1.90;1.10;;;;;;;;;;4923567;29;20079;-67
2023/03/06 04:07:09;;;;;;;2.50;1.13;;;;;;;;;;4921243;29;20146;-67
2023/03/06 04:09:35;;;;;;;3.33;1.00;;;;;;;;;;4922214;29;20067;-67
2023/03/06 04:12:01;;;;;;;2.20;1.05;;;;;;;;;;4906207;29;20040;-67
2023/03/06 04:14:27;;;;;;;2.40;1.00;;;;;;;;;;4907423;29;20052;-67
2023/03/06 04:16:54;;;;;;;2.55;1.10;;;;;;;;;;4924305;29;20423;-67
2023/03/06 04:19:20;;;;;;;2.42;1.23;;;;;;;;;;4923231;29;20040;-67
2023/03/06 04:21:46;;;;;;;2.25;1.08;;;;;;;;;;4918896;29;20456;-67
2023/03/06 04:24:12;;;;;;;1.88;0.88;;;;;;;;;;4919899;29;20046;-67
2023/03/06 04:26:38;;;;;;;2.08;0.93;;;;;;;;;;4920886;29;20147;-67
2023/03/06 04:29:05;;;;;;;4.00;1.15;;;;;;;;;;4923713;29;20035;-67
2023/03/06 04:31:31;;;;;;;3.60;1.50;;;;;;;;;;4923233;29;20052;-67
2023/03/06 04:33:57;;;;;;;3.05;1.33;;;;;;;;;;4923920;29;20223;-67
2023/03/06 04:36:32;;;;;;;5.60;1.40;;;;;;;;;;4922559;29;20545;-67
2023/03/06 04:38:58;;;;;;;2.80;1.30;;;;;;;;;;4905958;29;20063;-67
2023/03/06 04:41:24;;;;;;;3.42;1.50;;;;;;;;;;4923539;29;20035;-67
2023/03/06 04:43:50;;;;;;;3.47;1.55;;;;;;;;;;4921125;29;20522;-67
2023/03/06 04:46:17;;;;;;;4.32;1.50;;;;;;;;;;4920972;29;20048;-67
2023/03/06 04:48:43;;;;;;;3.10;1.40;;;;;;;;;;4923291;29;20066;-67
2023/03/06 04:51:11;;;;;;;4.25;1.45;;;;;;;;;;4921451;29;20074;-67
2023/03/06 04:53:38;;;;;;;6.03;1.60;;;;;;;;;;4920088;29;20047;-67
2023/03/06 04:56:04;;;;;;;5.75;1.60;;;;;;;;;;4920226;29;20032;-67
2023/03/06 04:58:30;;;;;;;3.35;1.55;;;;;;;;;;4921762;29;20054;-67
2023/03/06 05:00:56;;;;;;;5.45;1.60;;;;;;;;;;4923384;29;20127;-67
2023/03/06 05:03:23;;;;;;;3.70;1.45;;;;;;;;;;4919584;29;20083;-67
2023/03/06 05:05:49;;;;;;;3.33;1.45;;;;;;;;;;4920806;29;20055;-67
2023/03/06 05:08:16;;;;;;;5.10;1.38;;;;;;;;;;4908108;29;20040;-67
2023/03/06 05:10:43;;;;;;;6.97;1.60;;;;;;;;;;4921893;29;20103;-67
2023/03/06 05:13:09;;;;;;;3.80;1.40;;;;;;;;;;4918892;29;20047;-67
2023/03/06 05:15:36;;;;;;;3.78;1.42;;;;;;;;;;4918311;29;20631;-67
2023/03/06 05:18:02;;;;;;;4.07;1.70;;;;;;;;;;4921210;29;20048;-67
2023/03/06 05:20:28;;;;;;;3.88;1.45;;;;;;;;;;4906859;29;20759;-67
2023/03/06 05:22:54;;;;;;;3.30;1.48;;;;;;;;;;4903365;29;20044;-67
2023/03/06 05:25:21;;;;;;;5.07;1.85;;;;;;;;;;4921065;29;20411;-67
2023/03/06 05:27:47;;;;;;;2.53;1.20;;;;;;;;;;4920729;29;20847;-67
2023/03/06 05:30:14;;;;;;;4.60;1.30;;;;;;;;;;4928507;28;20082;-67
2023/03/06 05:32:41;;;;;;;3.17;1.40;;;;;;;;;;4918432;29;20048;-67
2023/03/06 05:35:07;;;;;;;6.97;1.90;;;;;;;;;;4920542;29;20048;-67
2023/03/06 05:37:34;;;;;;;5.53;1.70;;;;;;;;;;4922674;29;20051;-67
2023/03/06 05:40:00;;;;;;;5.88;2.47;;;;;;;;;;4919705;29;20434;-67
2023/03/06 05:42:27;;;;;;;9.20;2.90;;;;;;;;;;4921013;29;20040;-67
2023/03/06 05:44:53;;;;;;;4.75;2.58;;;;;;;;;;4921448;29;20076;-67
2023/03/06 05:47:19;;;;;;;6.45;2.78;;;;;;;;;;4920663;29;20913;-67
2023/03/06 05:49:45;;;;;;;5.15;2.33;;;;;;;;;;4921730;29;20055;-67
2023/03/06 05:52:12;;;;;;;5.53;2.40;;;;;;;;;;4920436;29;20451;-67
2023/03/06 05:54:38;;;;;;;7.38;2.25;;;;;;;;;;4921588;29;20048;-67
2023/03/06 05:57:05;;;;;;;8.77;2.28;;;;;;;;;;4920583;29;20040;-67
2023/03/06 05:59:32;;;;;;;5.75;1.88;;;;;;;;;;4931492;29;20067;-66
2023/03/06 06:01:58;;;;;;;5.50;1.95;;;;;;;;;;4923994;29;20051;-67
2023/03/06 06:04:25;;;;;;;5.55;2.15;;;;;;;;;;4929475;29;20052;-67
2023/03/06 06:06:58;;;;;;;4.88;2.22;;;;;;;;;;4925255;29;20043;-67
2023/03/06 06:09:25;;;;;;;5.93;2.40;;;;;;;;;;4921460;29;20078;-67
2023/03/06 06:11:53;;;;;;;10.15;2.30;;;;;;;;;;4920040;29;20311;-67
2023/03/06 06:14:19;;;;;;;7.13;2.15;;;;;;;;;;4918613;29;20127;-67
2023/03/06 06:16:45;;;;;;;6.03;2.35;;;;;;;;;;4920849;29;20048;-67
2023/03/06 06:19:17;;;;;;;6.38;2.13;;;;;;;;;;4924980;29;20046;-67
2023/03/06 06:21:45;;;;;;;7.65;2.30;;;;;;;;;;4924129;29;20548;-67
2023/03/06 06:24:11;;;;;;;7.32;2.30;;;;;;;;;;4925713;29;20229;-67
2023/03/06 06:26:38;;;;;;;7.47;2.83;;;;;;;;;;4921153;29;20045;-67
2023/03/06 06:29:04;;;;;;;5.50;2.90;;;;;;;;;;4920857;29;20763;-67
2023/03/06 06:31:31;;;;;;;5.43;2.58;;;;;;;;;;4919564;29;20138;-67
2023/03/06 06:33:57;;;;;;;5.40;2.90;;;;;;;;;;4919434;29;20037;-68
2023/03/06 06:36:23;;;;;;;7.13;3.08;;;;;;;;;;4921159;29;20130;-69
2023/03/06 06:38:49;;;;;;;6.75;2.30;;;;;;;;;;4925917;29;20411;-69
2023/03/06 06:41:15;;;;;;;5.32;2.42;;;;;;;;;;4927330;29;20238;-69
2023/03/06 06:43:42;;;;;;;5.13;2.15;;;;;;;;;;4906912;29;20397;-69
2023/03/06 06:46:08;;;;;;;12.05;2.40;;;;;;;;;;4923359;29;20719;-69
2023/03/06 06:48:36;;;;;;;10.00;2.83;;;;;;;;;;4925153;29;20047;-69
2023/03/06 06:51:03;;;;;;;6.28;2.45;;;;;;;;;;4924277;29;20407;-68
2023/03/06 06:53:29;;;;;;;8.48;2.92;;;;;;;;;;4925960;29;20089;-69
2023/03/06 06:55:57;;;;;;;8.88;3.13;;;;;;;;;;4927799;29;20044;-69
2023/03/06 06:58:23;;;;;;;8.52;2.90;;;;;;;;;;4924571;29;20058;-69
2023/03/06 07:00:49;;;;;;;11.45;3.65;;;;;;;;;;4907837;29;20388;-69
2023/03/06 07:03:16;;;;;;;10.65;3.67;;;;;;;;;;4917608;29;20048;-69
2023/03/06 07:05:42;;;;;;;10.57;3.55;;;;;;;;;;4918168;29;20048;-69
2023/03/06 07:08:09;;;;;;;10.60;3.70;;;;;;;;;;4923804;29;20642;-69
2023/03/06 07:10:38;;;;;;;5.40;2.40;;;;;;;;;;4919223;29;20106;-69
2023/03/06 07:13:04;;;;;;;8.00;2.45;;;;;;;;;;4921710;29;20147;-69
2023/03/06 07:15:30;;;;;;;8.27;3.05;;;;;;;;;;4922591;29;20091;-69
2023/03/06 07:17:56;;;;;;;6.63;2.58;;;;;;;;;;4921435;29;20054;-69
2023/03/06 07:20:23;;;;;;;12.23;2.70;;;;;;;;;;4921237;29;20147;-69
2023/03/06 07:22:49;;;;;;;7.30;3.00;;;;;;;;;;4919014;29;20095;-68
2023/03/06 07:25:15;;;;;;;8.60;2.85;;;;;;;;;;4922530;29;20047;-68
2023/03/06 07:27:41;;;;;;;7.60;2.60;;;;;;;;;;4920216;29;20055;-68
2023/03/06 07:30:09;;;;;;;5.28;2.35;;;;;;;;;;4898810;29;20123;-68
2023/03/06 07:32:35;;;;;;;6.70;3.35;;;;;;;;;;4906456;29;20518;-69
2023/03/06 07:35:01;;;;;;;7.53;2.65;;;;;;;;;;4891419;29;20059;-69
2023/03/06 07:37:28;;;;;;;8.60;3.35;;;;;;;;;;4909145;29;20091;-69
2023/03/06 07:39:54;;;;;;;12.68;2.28;;;;;;;;;;4891702;29;20055;-70
2023/03/06 07:42:20;;;;;;;4.57;1.90;;;;;;;;;;4893393;29;20047;-69
2023/03/06 07:44:46;;;;;;;5.88;1.80;;;;;;;;;;4905090;29;20036;-69
2023/03/06 07:47:12;;;;;;;8.45;2.28;;;;;;;;;;4905035;29;20108;-69
2023/03/06 07:49:39;;;;;;;5.70;2.10;;;;;;;;;;4893287;29;20084;-69
2023/03/06 07:52:05;;;;;;;8.13;2.03;;;;;;;;;;4909124;29;20546;-69
2023/03/06 07:54:31;;;;;;;7.85;1.80;;;;;;;;;;4905372;29;20037;-69
2023/03/06 07:56:57;;;;;;;4.18;1.25;;;;;;;;;;4908583;29;20447;-69
2023/03/06 07:59:24;;;;;;;4.97;1.30;;;;;;;;;;4908165;29;20186;-69
2023/03/06 08:01:50;;;;;;;4.22;1.20;;;;;;;;;;4906412;29;20126;-69
2023/03/06 08:04:16;;;;;;;6.22;1.25;;;;;;;;;;4902512;29;20048;-69
2023/03/06 08:06:43;;;;;;;6.47;1.33;;;;;;;;;;4908657;29;20052;-69
2023/03/06 08:09:09;;;;;;;7.03;1.42;;;;;;;;;;4907431;29;20041;-69
2023/03/06 08:11:35;;;;;;;8.38;1.38;;;;;;;;;;4909813;29;20052;-69
2023/03/06 08:14:01;;;;;;;4.88;1.23;;;;;;;;;;4907227;29;20492;-69
2023/03/06 08:16:28;;;;;;;5.40;1.30;;;;;;;;;;4905762;29;20064;-69
2023/03/06 08:18:55;;;;;;;3.58;1.30;;;;;;;;;;4905026;29;20044;-69
2023/03/06 08:21:23;;;;;;;4.30;1.20;;;;;;;;;;4905557;29;20396;-69
2023/03/06 08:23:49;;;;;;;5.28;1.10;;;;;;;;;;4907785;29;20051;-69
2023/03/06 08:26:18;;;;;;;3.78;1.45;;;;;;;;;;4907511;29;20132;-69
2023/03/06 08:28:44;;;;;;;6.20;1.20;;;;;;;;;;4905319;29;21307;-69
2023/03/06 08:31:12;;;;;;;6.32;1.30;;;;;;;;;;4920466;29;20237;-67
2023/03/06 08:33:39;;;;;;;7.32;1.17;;;;;;;;;;4911643;29;20051;-66
2023/03/06 08:36:05;;;;;;;13.38;2.13;;;;;;;;;;4924589;29;20173;-68
2023/03/06 08:38:32;;;;;;;4.72;1.10;;;;;;;;;;4924756;29;20481;-68
2023/03/06 08:40:58;;;;;;;4.60;1.08;;;;;;;;;;4924769;29;20051;-68
2023/03/06 08:43:24;;;;;;;4.25;0.75;;;;;;;;;;4926331;29;20419;-68
2023/03/06 08:45:52;;;;;;;9.95;0.93;;;;;;;;;;4925660;29;20058;-68
2023/03/06 08:48:18;;;;;;;5.13;0.75;;;;;;;;;;4923270;29;20453;-68
2023/03/06 08:50:44;;;;;;;3.75;1.08;;;;;;;;;;4925670;29;20122;-68
2023/03/06 08:53:11;;;;;;;3.85;0.80;;;;;;;;;;4926829;29;20103;-68
2023/03/06 08:55:37;;;;;;;6.18;0.68;;;;;;;;;;4927376;29;20103;-68
2023/03/06 08:58:03;;;;;;;6.05;0.73;;;;;;;;;;4923184;29;20082;-68
2023/03/06 09:00:30;;;;;;;7.53;0.98;;;;;;;;;;4909789;29;20049;-68
2023/03/06 09:02:56;;;;;;;3.65;1.20;;;;;;;;;;4925804;29;20135;-68
2023/03/06 09:05:22;;;;;;;4.03;0.73;;;;;;;;;;4925033;29;20043;-68
2023/03/06 09:07:49;;;;;;;2.50;0.60;;;;;;;;;;4924292;29;20138;-68
2023/03/06 09:10:16;;;;;;;4.93;1.00;;;;;;;;;;4900281;29;20044;-68
2023/03/06 09:12:42;;;;;;;7.75;1.67;;;;;;;;;;4924060;29;20629;-68
2023/03/06 09:15:09;;;;;;;9.40;2.53;;;;;;;;;;4925902;29;20051;-68
2023/03/06 09:17:35;;;;;;;9.43;1.58;;;;;;;;;;4921778;29;20040;-69
2023/03/06 09:20:02;;;;;;;5.70;1.63;;;;;;;;;;4915029;29;20408;-68
2023/03/06 09:22:28;;;;;;;5.60;1.15;;;;;;;;;;4926523;29;20667;-68
2023/03/06 09:24:54;;;;;;;5.53;1.48;;;;;;;;;;4923286;29;20082;-68
2023/03/06 09:27:21;;;;;;;7.82;1.60;;;;;;;;;;4925846;29;20043;-68
2023/03/06 09:29:47;;;;;;;5.82;1.58;;;;;;;;;;4926049;29;20092;-68
2023/03/06 09:32:14;;;;;;;7.38;1.73;;;;;;;;;;4920953;29;20086;-68
2023/03/06 09:34:40;;;;;;;9.23;1.92;;;;;;;;;;4904521;29;20526;-68
2023/03/06 09:37:06;;;;;;;4.57;1.00;;;;;;;;;;4924691;29;20048;-68
2023/03/06 09:39:33;;;;;;;8.30;1.58;;;;;;;;;;4906175;29;20400;-68
2023/03/06 09:41:59;;;;;;;6.57;1.02;;;;;;;;;;4918351;29;20095;-68
2023/03/06 09:44:27;;;;;;;8.13;1.65;;;;;;;;;;4918983;29;20043;-69
2023/03/06 09:46:59;;;;;;;5.05;1.30;;;;;;;;;;4917066;29;20047;-69
2023/03/06 09:49:44;;;;;;;7.18;1.10;;;;;;;;;;4924491;29;20047;-69
2023/03/06 09:52:27;;;;;;;4.78;0.90;;;;;;;;;;4918579;28;20127;-68
2023/03/06 09:54:53;;;;;;;2.25;0.70;;;;;;;;;;4903991;29;20064;-68
2023/03/06 09:57:25;;;;;;;8.82;1.50;;;;;;;;;;4928251;29;20040;-68
2023/03/06 09:59:54;;;;;;;5.10;1.02;;;;;;;;;;4908877;29;20056;-68
2023/03/06 10:02:24;;;;;;;2.92;0.80;;;;;;;;;;4922525;29;20074;-68
2023/03/06 10:04:54;;;;;;;4.78;1.45;;;;;;;;;;4902308;29;20151;-69
2023/03/06 10:07:22;;;;;;;6.45;1.20;;;;;;;;;;4905980;29;20059;-69
2023/03/06 10:09:52;;;;;;;6.93;1.20;;;;;;;;;;4920391;29;20051;-69
2023/03/06 10:12:20;;;;;;;4.40;1.20;;;;;;;;;;4923044;29;20178;-69
2023/03/06 10:14:53;;;;;;;4.80;1.33;;;;;;;;;;4922076;29;20089;-69
2023/03/06 10:17:21;;;;;;;3.60;0.80;;;;;;;;;;4925861;29;20075;-69
2023/03/06 10:19:48;;;;;;;3.80;0.47;;;;;;;;;;4927346;29;20115;-67
2023/03/06 10:22:26;;;;;;;3.55;0.88;;;;;;;;;;4925578;29;20055;-69
2023/03/06 10:24:54;;;;;;;2.67;0.70;;;;;;;;;;4910772;29;20092;-69
2023/03/06 10:27:27;;;;;;;5.10;1.08;;;;;;;;;;4925995;29;20131;-69
2023/03/06 10:30:12;;;;;;;2.80;0.52;;;;;;;;;;4917000;29;20048;-69
2023/03/06 10:32:38;;;;;;;5.47;0.80;;;;;;;;;;4908998;29;20443;-69
2023/03/06 10:35:11;;;;;;;4.32;0.80;;;;;;;;;;4925924;29;20439;-69
2023/03/06 10:37:37;;;;;;;3.45;0.52;;;;;;;;;;4910248;29;20056;-69
2023/03/06 10:40:12;;;;;;;2.78;0.50;;;;;;;;;;4925157;29;20781;-70
2023/03/06 10:42:38;;;;;;;4.82;0.52;;;;;;;;;;4926819;29;20408;-68
2023/03/06 10:45:06;;;;;;;2.40;0.65;;;;;;;;;;4909017;29;20043;-68
2023/03/06 10:47:35;;;;;;;4.00;0.73;;;;;;;;;;4908838;29;20047;-68
2023/03/06 10:50:02;;;;;;;2.03;0.70;;;;;;;;;;4924633;29;20447;-67
2023/03/06 10:52:31;;;;;;;3.00;0.80;;;;;;;;;;4926982;29;20050;-68
2023/03/06 10:55:16;;;;;;;2.83;0.60;;;;;;;;;;4911067;29;20086;-68
2023/03/06 10:57:42;;;;;;;1.80;0.50;;;;;;;;;;4925309;29;20058;-69
2023/03/06 11:00:23;;;;;;;5.00;0.60;;;;;;;;;;4912994;29;20547;-68
2023/03/06 11:03:04;;;;;;;5.30;1.33;;;;;;;;;;4919598;29;20044;-67
2023/03/06 11:05:30;;;;;;;5.63;0.75;;;;;;;;;;4921763;29;20054;-68
2023/03/06 11:07:58;;;;;;;2.38;0.60;;;;;;;;;;4927761;29;20043;-68
2023/03/06 11:10:25;;;;;;;3.92;0.65;;;;;;;;;;4928127;29;20131;-68
2023/03/06 11:12:56;;;;;;;3.67;0.68;;;;;;;;;;4930560;29;20142;-67
2023/03/06 11:15:25;;;;;;;4.47;0.52;;;;;;;;;;4915345;29;20102;-68
2023/03/06 11:17:54;;;;;;;3.22;0.55;;;;;;;;;;4926762;29;20109;-68
2023/03/06 11:20:20;;;;;;;5.40;0.88;;;;;;;;;;4924515;29;20169;-68
2023/03/06 11:22:49;;;;;;;3.47;0.65;;;;;;;;;;4924601;29;20679;-68
2023/03/06 11:25:16;;;;;;;6.22;1.38;;;;;;;;;;4925225;29;20157;-68
2023/03/06 11:27:43;;;;;;;3.92;0.70;;;;;;;;;;4925546;29;20044;-67
2023/03/06 11:30:18;;;;;;;2.97;0.70;;;;;;;;;;4925898;29;20078;-68
2023/03/06 11:32:49;;;;;;;4.05;0.98;;;;;;;;;;4908878;29;20492;-70
2023/03/06 11:35:19;;;;;;;2.83;0.70;;;;;;;;;;4907012;29;20089;-70
2023/03/06 11:37:50;;;;;;;7.05;0.70;;;;;;;;;;4919157;29;20047;-70
2023/03/06 11:40:20;;;;;;;2.80;0.70;;;;;;;;;;4922698;29;20039;-69
2023/03/06 11:42:51;;;;;;;2.45;0.50;;;;;;;;;;4908211;29;20066;-69
2023/03/06 11:45:19;;;;;;;3.80;0.50;;;;;;;;;;4922502;29;20079;-69
2023/03/06 11:47:52;;;;;;;2.75;0.50;;;;;;;;;;4921935;29;20043;-69
2023/03/06 11:50:18;;;;;;;3.00;0.40;;;;;;;;;;4921058;29;20106;-69
2023/03/06 11:52:56;;;;;;;2.95;0.52;;;;;;;;;;4908378;29;20190;-69
2023/03/06 11:55:35;;;;;;;2.55;0.68;;;;;;;;;;4923106;29;20142;-68
2023/03/06 11:58:05;;;;;;;6.60;0.80;;;;;;;;;;4919880;29;21077;-68
2023/03/06 12:00:37;;;;;;;2.03;0.50;;;;;;;;;;4924860;29;20063;-68
2023/03/06 12:03:19;;;;;;;3.88;0.70;;;;;;;;;;4922539;29;20524;-68
2023/03/06 12:05:53;;;;;;;3.05;0.60;;;;;;;;;;4910381;29;20108;-69
2023/03/06 12:08:29;;;;;;;7.68;0.85;;;;;;;;;;4910613;29;20044;-68
2023/03/06 12:11:00;;;;;;;4.30;0.43;;;;;;;;;;4927860;29;20522;-69
2023/03/06 12:13:28;;;;;;;3.80;0.65;;;;;;;;;;4926780;29;21340;-69
2023/03/06 12:16:02;;;;;;;4.78;0.80;;;;;;;;;;4925598;29;20051;-67
2023/03/06 12:18:29;;;;;;;2.35;0.60;;;;;;;;;;4927268;29;20481;-83
2023/03/06 12:21:04;;;;;;;1.90;0.52;;;;;;;;;;4924845;29;20055;-68
2023/03/06 12:23:43;;;;;;;2.22;0.60;;;;;;;;;;4923669;29;20295;-68
2023/03/06 12:26:10;;;;;;;3.58;0.75;;;;;;;;;;4924483;29;20043;-68
2023/03/06 12:28:40;;;;;;;2.97;0.50;;;;;;;;;;4920893;29;20058;-68
2023/03/06 12:31:06;;;;;;;1.92;0.50;;;;;;;;;;4922397;29;20118;-68
2023/03/06 12:33:40;;;;;;;4.95;0.85;;;;;;;;;;4927430;29;20039;-68
2023/03/06 12:36:21;;;;;;;2.17;0.50;;;;;;;;;;4906597;29;20093;-68
2023/03/06 12:38:48;;;;;;;3.58;0.70;;;;;;;;;;4922306;29;20044;-67
2023/03/06 12:41:19;;;;;;;3.65;1.13;;;;;;;;;;4909263;29;20400;-70
2023/03/06 12:43:54;;;;;;;4.90;0.55;;;;;;;;;;4923218;29;20040;-70
2023/03/06 12:46:22;;;;;;;6.82;0.60;;;;;;;;;;4927410;29;20055;-67
2023/03/06 12:48:56;;;;;;;2.08;0.93;;;;;;;;;;4923956;29;20215;-68
2023/03/06 12:51:22;;;;;;;4.35;0.70;;;;;;;;;;4918940;29;20058;-77
2023/03/06 12:53:49;;;;;;;4.70;0.73;;;;;;;;;;4910737;29;20059;-80
2023/03/06 12:56:16;;;;;;;1.50;0.30;;;;;;;;;;4924435;29;20036;-70
2023/03/06 12:58:48;;;;;;;2.47;0.88;;;;;;;;;;4923490;29;20693;-70
2023/03/06 13:01:33;;;;;;;5.28;0.80;;;;;;;;;;4907612;29;20441;-72
2023/03/06 13:03:59;;;;;;;4.30;0.93;;;;;;;;;;4903093;29;20104;-72
2023/03/06 13:06:46;;;;;;;2.90;0.50;;;;;;;;;;4907663;29;20529;-71
2023/03/06 13:09:22;;;;;;;2.90;0.60;;;;;;;;;;4922959;29;20044;-71
2023/03/06 13:11:48;;;;;;;5.75;0.90;;;;;;;;;;4907718;29;20124;-71
2023/03/06 13:14:28;;;;;;;5.78;0.80;;;;;;;;;;4926820;29;20487;-71
2023/03/06 13:16:54;;;;;;;2.35;0.63;;;;;;;;;;4925036;29;20040;-71
2023/03/06 13:19:22;;;;;;;1.52;0.60;;;;;;;;;;4911250;29;20803;-71
2023/03/06 13:21:55;;;;;;;1.65;0.60;;;;;;;;;;4905833;29;20051;-71
2023/03/06 13:24:22;;;;;;;2.63;0.85;;;;;;;;;;4921325;29;20043;-71
2023/03/06 13:26:52;;;;;;;2.60;0.50;;;;;;;;;;4920177;29;20070;-70
2023/03/06 13:29:37;;;;;;;2.67;0.65;;;;;;;;;;4925228;29;20050;-70
2023/03/06 13:32:03;;;;;;;5.35;1.13;;;;;;;;;;4924352;29;20476;-71
2023/03/06 13:34:34;;;;;;;3.97;0.80;;;;;;;;;;4921922;29;20055;-70
2023/03/06 13:37:13;;;;;;;4.95;0.68;;;;;;;;;;4926989;29;20625;-68
2023/03/06 13:39:54;;;;;;;3.67;0.70;;;;;;;;;;4927477;29;20051;-68
2023/03/06 13:42:26;;;;;;;2.90;0.60;;;;;;;;;;4927152;29;20212;-68
2023/03/06 13:44:52;;;;;;;4.95;0.88;;;;;;;;;;4926382;29;20044;-76
2023/03/06 13:47:22;;;;;;;5.38;0.75;;;;;;;;;;4924586;29;20503;-70
2023/03/06 13:49:48;;;;;;;3.53;0.90;;;;;;;;;;4928486;29;20514;-67
2023/03/06 13:52:26;;;;;;;6.57;1.02;;;;;;;;;;4925458;29;20043;-65
2023/03/06 13:54:58;;;;;;;3.38;0.88;;;;;;;;;;4924222;29;20410;-67
2023/03/06 13:57:34;;;;;;;3.80;1.10;;;;;;;;;;4929273;29;20063;-66
2023/03/06 14:00:00;;;;;;;2.50;1.00;;;;;;;;;;4928251;29;20523;-66
2023/03/06 14:02:28;;;;;;;3.45;0.95;;;;;;;;;;4924564;29;20036;-66
2023/03/06 14:04:57;;;;;;;6.20;1.10;;;;;;;;;;4904583;29;20056;-67
2023/03/06 14:07:26;;;;;;;4.38;1.25;;;;;;;;;;4905163;29;20514;-67
2023/03/06 14:09:52;;;;;;;8.38;0.90;;;;;;;;;;4904697;29;20055;-78
2023/03/06 14:12:23;;;;;;;3.83;0.93;;;;;;;;;;4921204;29;20075;-79
2023/03/06 14:14:55;;;;;;;7.00;1.27;;;;;;;;;;4908266;29;20134;-78
2023/03/06 14:17:30;;;;;;;5.00;1.02;;;;;;;;;;4922260;29;21686;-77
2023/03/06 14:19:59;;;;;;;7.65;1.20;;;;;;;;;;4921530;29;20055;-78
2023/03/06 14:22:25;;;;;;;4.18;1.10;;;;;;;;;;4912340;29;20115;-80
2023/03/06 14:24:55;;;;;;;6.10;1.42;;;;;;;;;;4927685;29;20048;-77
2023/03/06 14:27:37;;;;;;;3.22;1.40;;;;;;;;;;4921484;29;20111;-81
2023/03/06 14:30:05;;;;;;;8.73;1.73;;;;;;;;;;4906573;29;20059;-78
2023/03/06 14:32:31;;;;;;;4.43;1.83;;;;;;;;;;4920459;29;20052;-80
2023/03/06 14:34:57;;;;;;;7.78;1.70;;;;;;;;;;4919032;29;20099;-78
2023/03/06 14:37:24;;;;;;;7.53;2.45;;;;;;;;;;4920794;29;20102;-74
2023/03/06 14:39:50;;;;;;;4.40;1.80;;;;;;;;;;4923584;29;20054;-72
2023/03/06 14:42:19;;;;;;;5.07;1.80;;;;;;;;;;4922791;29;20102;-74
2023/03/06 14:44:46;;;;;;;9.07;1.67;;;;;;;;;;4933551;28;20480;-74
2023/03/06 14:47:26;;;;;;;3.30;1.60;;;;;;;;;;4923362;29;20150;-77
2023/03/06 14:50:11;;;;;;;7.30;1.88;;;;;;;;;;4919810;29;20135;-76